createdAt,value
2019-03-12T00:00:04.091Z,1.33
2019-03-12T00:01:10.413Z,1.50
2019-03-12T00:02:14.480Z,1.57
2019-03-12T00:03:18.850Z,1.52
2019-03-12T00:04:22.911Z,1.65
2019-03-12T00:05:26.941Z,1.40
2019-03-12T00:06:31.000Z,1.52
2019-03-12T00:07:35.013Z,1.60
2019-03-12T00:08:39.142Z,1.40
2019-03-12T00:09:43.171Z,1.40
2019-03-12T00:10:47.188Z,1.40
2019-03-12T00:11:51.243Z,1.57
2019-03-12T00:13:01.817Z,1.47
2019-03-12T00:14:05.901Z,1.40
2019-03-12T00:15:10.189Z,1.40
2019-03-12T00:16:14.219Z,1.47
2019-03-12T00:17:18.673Z,1.47
2019-03-12T00:18:23.179Z,1.80
2019-03-12T00:19:27.477Z,1.60
2019-03-12T00:20:31.460Z,1.57
2019-03-12T00:21:35.457Z,1.37
2019-03-12T00:22:39.525Z,1.37
2019-03-12T00:23:43.525Z,1.57
2019-03-12T00:24:47.704Z,1.50
2019-03-12T00:25:51.802Z,1.40
2019-03-12T00:26:55.969Z,1.80
2019-03-12T00:28:00.319Z,1.50
2019-03-12T00:29:04.534Z,1.40
2019-03-12T00:30:09.029Z,1.40
2019-03-12T00:31:13.347Z,1.50
2019-03-12T00:32:17.680Z,1.33
2019-03-12T00:33:22.167Z,1.47
2019-03-12T00:34:26.477Z,1.40
2019-03-12T00:35:30.845Z,1.40
2019-03-12T00:36:35.181Z,1.35
2019-03-12T00:37:39.420Z,1.50
2019-03-12T00:38:43.704Z,1.50
2019-03-12T00:39:48.160Z,1.52
2019-03-12T00:40:52.482Z,1.32
2019-03-12T00:41:56.763Z,1.40
2019-03-12T00:43:01.140Z,1.32
2019-03-12T00:44:05.375Z,1.57
2019-03-12T00:45:09.738Z,1.60
2019-03-12T00:46:14.129Z,1.30
2019-03-12T00:47:18.560Z,1.50
2019-03-12T00:48:22.618Z,1.55
2019-03-12T00:49:27.034Z,1.35
2019-03-12T00:50:31.453Z,1.40
2019-03-12T00:51:35.890Z,1.57
2019-03-12T00:52:40.450Z,1.45
2019-03-12T00:53:44.623Z,1.50
2019-03-12T00:54:48.955Z,1.57
2019-03-12T00:55:53.391Z,1.52
2019-03-12T00:56:57.819Z,1.60
2019-03-12T00:58:02.098Z,1.57
2019-03-12T00:59:06.380Z,1.80
2019-03-12T01:00:12.972Z,1.70
2019-03-12T01:01:17.375Z,1.80
2019-03-12T01:02:21.732Z,1.52
2019-03-12T01:03:26.072Z,1.45
2019-03-12T01:04:30.407Z,1.70
2019-03-12T01:05:34.661Z,1.95
2019-03-12T01:06:38.908Z,1.77
2019-03-12T01:07:43.144Z,1.72
2019-03-12T01:08:47.633Z,1.50
2019-03-12T01:09:51.901Z,1.67
2019-03-12T01:10:55.976Z,1.60
2019-03-12T01:11:59.962Z,1.77
2019-03-12T01:13:14.408Z,1.72
2019-03-12T01:14:18.423Z,1.70
2019-03-12T01:15:22.457Z,1.72
2019-03-12T01:16:26.530Z,1.65
2019-03-12T01:17:30.526Z,1.67
2019-03-12T01:18:34.581Z,1.67
2019-03-12T01:19:38.640Z,1.80
2019-03-12T01:20:43.002Z,1.32
2019-03-12T01:21:47.315Z,1.65
2019-03-12T01:22:51.545Z,1.55
2019-03-12T01:23:55.948Z,1.75
2019-03-12T01:25:00.392Z,1.60
2019-03-12T01:26:04.790Z,1.50
2019-03-12T01:27:09.176Z,1.65
2019-03-12T01:28:13.509Z,1.50
2019-03-12T01:29:17.791Z,1.72
2019-03-12T01:30:21.849Z,1.45
2019-03-12T01:31:25.915Z,1.60
2019-03-12T01:32:30.105Z,1.87
2019-03-12T01:33:34.513Z,1.73
2019-03-12T01:34:38.924Z,1.80
2019-03-12T01:35:42.965Z,1.60
2019-03-12T01:36:47.225Z,1.60
2019-03-12T01:37:51.634Z,1.80
2019-03-12T01:38:55.962Z,1.67
2019-03-12T01:40:00.459Z,1.52
2019-03-12T01:41:04.685Z,1.50
2019-03-12T01:42:09.080Z,1.50
2019-03-12T01:43:13.347Z,1.75
2019-03-12T01:44:17.601Z,1.82
2019-03-12T01:45:21.998Z,1.90
2019-03-12T01:46:26.198Z,1.60
2019-03-12T01:47:30.496Z,1.82
2019-03-12T01:48:34.847Z,1.62
2019-03-12T01:49:39.300Z,1.50
2019-03-12T01:50:43.655Z,1.72
2019-03-12T01:51:48.066Z,1.57
2019-03-12T01:52:52.382Z,1.62
2019-03-12T01:53:56.870Z,1.47
2019-03-12T01:55:01.150Z,1.70
2019-03-12T01:56:05.337Z,1.95
2019-03-12T01:57:09.692Z,1.70
2019-03-12T01:58:14.760Z,1.42
2019-03-12T01:59:18.419Z,1.40
2019-03-12T02:00:22.835Z,1.80
2019-03-12T02:01:27.140Z,1.65
2019-03-12T02:02:31.171Z,1.70
2019-03-12T02:03:35.173Z,1.90
2019-03-12T02:04:39.172Z,1.57
2019-03-12T02:05:43.191Z,1.90
2019-03-12T02:06:47.292Z,1.65
2019-03-12T02:07:51.428Z,1.52
2019-03-12T02:08:55.431Z,1.70
2019-03-12T02:09:59.481Z,1.80
2019-03-12T02:11:03.551Z,1.90
2019-03-12T02:12:07.642Z,1.80
2019-03-12T02:13:11.708Z,1.90
2019-03-12T02:14:25.794Z,1.70
2019-03-12T02:15:30.103Z,1.72
2019-03-12T02:16:35.083Z,1.60
2019-03-12T02:17:38.910Z,1.77
2019-03-12T02:18:43.272Z,1.80
2019-03-12T02:19:47.642Z,1.70
2019-03-12T02:20:51.910Z,1.70
2019-03-12T02:21:56.254Z,1.70
2019-03-12T02:23:00.694Z,1.82
2019-03-12T02:24:05.147Z,1.65
2019-03-12T02:25:10.480Z,1.75
2019-03-12T02:26:14.780Z,1.52
2019-03-12T02:27:19.113Z,1.70
2019-03-12T02:28:23.581Z,1.70
2019-03-12T02:29:27.821Z,1.70
2019-03-12T02:30:32.132Z,1.90
2019-03-12T02:31:36.355Z,1.67
2019-03-12T02:32:44.252Z,1.77
2019-03-12T02:33:45.114Z,1.80
2019-03-12T02:34:49.386Z,1.62
2019-03-12T02:35:53.686Z,1.65
2019-03-12T02:36:58.151Z,1.80
2019-03-12T02:38:02.621Z,1.95
2019-03-12T02:39:07.366Z,1.60
2019-03-12T02:40:11.947Z,1.92
2019-03-12T02:41:16.363Z,1.57
2019-03-12T02:42:20.662Z,2.20
2019-03-12T02:43:24.978Z,1.57
2019-03-12T02:44:29.320Z,1.77
2019-03-12T02:45:33.712Z,1.72
2019-03-12T02:46:38.131Z,1.80
2019-03-12T02:47:42.517Z,1.85
2019-03-12T02:48:46.812Z,1.70
2019-03-12T02:49:51.355Z,1.70
2019-03-12T02:50:55.667Z,1.67
2019-03-12T02:52:00.052Z,1.80
2019-03-12T02:53:04.432Z,1.75
2019-03-12T02:54:09.419Z,2.22
2019-03-12T02:55:13.605Z,1.80
2019-03-12T02:56:17.856Z,1.80
2019-03-12T02:57:22.318Z,1.80
2019-03-12T02:58:26.722Z,1.80
2019-03-12T02:59:31.031Z,1.77
2019-03-12T03:00:35.383Z,1.62
2019-03-12T03:01:39.873Z,1.75
2019-03-12T03:02:44.259Z,1.50
2019-03-12T03:03:48.562Z,1.87
2019-03-12T03:04:54.233Z,1.55
2019-03-12T03:06:01.413Z,1.40
2019-03-12T03:07:09.834Z,1.75
2019-03-12T03:08:14.194Z,1.52
2019-03-12T03:09:18.438Z,1.70
2019-03-12T03:10:22.940Z,1.67
2019-03-12T03:11:27.480Z,1.90
2019-03-12T03:12:31.740Z,1.80
2019-03-12T03:13:36.159Z,1.62
2019-03-12T03:14:41.201Z,1.95
2019-03-12T03:15:45.736Z,2.02
2019-03-12T03:16:50.162Z,2.02
2019-03-12T03:17:54.417Z,1.60
2019-03-12T03:18:58.733Z,2.00
2019-03-12T03:20:03.182Z,1.82
2019-03-12T03:21:07.512Z,1.80
2019-03-12T03:22:11.792Z,1.70
2019-03-12T03:23:16.137Z,1.87
2019-03-12T03:24:20.419Z,1.87
2019-03-12T03:25:24.652Z,1.80
2019-03-12T03:26:28.992Z,1.70
2019-03-12T03:27:33.287Z,1.90
2019-03-12T03:28:37.669Z,1.70
2019-03-12T03:29:41.894Z,1.90
2019-03-12T03:30:46.304Z,1.70
2019-03-12T03:31:50.632Z,1.52
2019-03-12T03:32:54.897Z,1.57
2019-03-12T03:33:59.330Z,2.00
2019-03-12T03:35:03.611Z,1.62
2019-03-12T03:36:07.847Z,1.70
2019-03-12T03:37:12.056Z,1.77
2019-03-12T03:38:16.424Z,1.63
2019-03-12T03:39:20.712Z,2.00
2019-03-12T03:40:25.070Z,1.60
2019-03-12T03:41:29.490Z,1.60
2019-03-12T03:42:33.788Z,1.67
2019-03-12T03:43:38.246Z,2.00
2019-03-12T03:44:42.568Z,1.97
2019-03-12T03:45:46.952Z,1.80
2019-03-12T03:46:51.374Z,1.98
2019-03-12T03:47:55.776Z,2.10
2019-03-12T03:49:00.182Z,1.57
2019-03-12T03:50:04.372Z,1.98
2019-03-12T03:51:08.364Z,1.98
2019-03-12T03:52:12.702Z,2.00
2019-03-12T03:53:17.020Z,1.65
2019-03-12T03:54:21.453Z,1.80
2019-03-12T03:55:25.709Z,2.00
2019-03-12T03:56:30.039Z,1.90
2019-03-12T03:57:34.252Z,1.80
2019-03-12T03:58:38.237Z,2.17
2019-03-12T03:59:42.571Z,1.90
2019-03-12T04:00:46.940Z,1.90
2019-03-12T04:01:51.221Z,2.00
2019-03-12T04:02:55.831Z,1.73
2019-03-12T04:04:00.200Z,1.90
2019-03-12T04:05:04.924Z,1.60
2019-03-12T04:06:09.387Z,1.92
2019-03-12T04:07:13.802Z,1.90
2019-03-12T04:08:18.136Z,2.05
2019-03-12T04:09:22.441Z,1.77
2019-03-12T04:10:26.851Z,1.80
2019-03-12T04:11:31.157Z,1.92
2019-03-12T04:12:35.662Z,1.70
2019-03-12T04:13:39.782Z,1.62
2019-03-12T04:14:44.066Z,1.80
2019-03-12T04:15:48.305Z,1.80
2019-03-12T04:16:52.485Z,2.17
2019-03-12T04:17:56.940Z,1.98
2019-03-12T04:19:01.350Z,1.92
2019-03-12T04:20:06.042Z,1.98
2019-03-12T04:21:10.394Z,2.10
2019-03-12T04:22:14.424Z,2.00
2019-03-12T04:23:18.432Z,1.90
2019-03-12T04:24:22.491Z,2.00
2019-03-12T04:25:26.502Z,2.02
2019-03-12T04:26:30.794Z,1.95
2019-03-12T04:27:35.137Z,1.52
2019-03-12T04:28:39.365Z,1.77
2019-03-12T04:29:43.665Z,2.00
2019-03-12T04:30:47.973Z,1.90
2019-03-12T04:31:52.320Z,2.20
2019-03-12T04:32:56.705Z,1.70
2019-03-12T04:34:11.709Z,1.80
2019-03-12T04:35:17.206Z,1.70
2019-03-12T04:36:21.498Z,1.80
2019-03-12T04:37:25.956Z,1.70
2019-03-12T04:38:30.243Z,2.00
2019-03-12T04:39:34.630Z,1.70
2019-03-12T04:40:38.849Z,1.60
2019-03-12T04:41:43.226Z,1.62
2019-03-12T04:42:47.486Z,1.70
2019-03-12T04:43:51.891Z,1.70
2019-03-12T04:44:56.306Z,2.00
2019-03-12T04:46:00.598Z,2.02
2019-03-12T04:47:05.025Z,1.70
2019-03-12T04:48:09.342Z,1.75
2019-03-12T04:49:13.684Z,1.70
2019-03-12T04:50:18.133Z,1.80
2019-03-12T04:51:22.233Z,1.98
2019-03-12T04:52:26.552Z,1.80
2019-03-12T04:53:31.004Z,1.70
2019-03-12T04:54:35.359Z,1.70
2019-03-12T04:55:39.546Z,1.60
2019-03-12T04:56:43.780Z,1.60
2019-03-12T04:57:48.051Z,1.75
2019-03-12T04:58:52.467Z,1.57
2019-03-12T04:59:56.920Z,1.62
2019-03-12T05:01:01.419Z,1.77
2019-03-12T05:02:05.727Z,1.65
2019-03-12T05:03:10.011Z,1.70
2019-03-12T05:04:14.380Z,1.80
2019-03-12T05:05:18.875Z,1.60
2019-03-12T05:06:23.334Z,1.80
2019-03-12T05:07:27.716Z,1.80
2019-03-12T05:08:32.090Z,1.72
2019-03-12T05:09:36.485Z,1.50
2019-03-12T05:10:40.779Z,1.95
2019-03-12T05:11:44.819Z,1.60
2019-03-12T05:12:48.845Z,1.45
2019-03-12T05:14:02.778Z,1.70
2019-03-12T05:15:09.443Z,1.80
2019-03-12T05:16:13.933Z,2.25
2019-03-12T05:17:23.953Z,1.75
2019-03-12T05:18:28.265Z,1.70
2019-03-12T05:19:32.567Z,1.75
2019-03-12T05:20:37.007Z,1.70
2019-03-12T05:21:41.341Z,1.77
2019-03-12T05:22:45.610Z,1.70
2019-03-12T05:23:50.023Z,1.92
2019-03-12T05:24:54.429Z,1.70
2019-03-12T05:25:58.761Z,1.80
2019-03-12T05:27:03.130Z,1.82
2019-03-12T05:28:07.432Z,1.55
2019-03-12T05:29:11.760Z,1.65
2019-03-12T05:30:17.202Z,2.00
2019-03-12T05:31:21.520Z,1.92
2019-03-12T05:32:26.098Z,1.90
2019-03-12T05:33:30.468Z,2.05
2019-03-12T05:34:34.635Z,1.90
2019-03-12T05:35:38.821Z,1.85
2019-03-12T05:36:43.169Z,1.70
2019-03-12T05:37:47.540Z,1.70
2019-03-12T05:38:51.791Z,1.90
2019-03-12T05:39:56.086Z,1.85
2019-03-12T05:41:00.581Z,1.90
2019-03-12T05:42:04.856Z,1.72
2019-03-12T05:43:09.216Z,1.80
2019-03-12T05:44:13.515Z,2.25
2019-03-12T05:45:17.804Z,2.08
2019-03-12T05:46:22.141Z,1.77
2019-03-12T05:47:26.593Z,1.80
2019-03-12T05:48:30.961Z,1.95
2019-03-12T05:49:35.271Z,1.82
2019-03-12T05:50:39.454Z,2.17
2019-03-12T05:51:43.866Z,1.87
2019-03-12T05:52:49.258Z,1.90
2019-03-12T05:53:52.790Z,1.85
2019-03-12T05:54:56.995Z,1.98
2019-03-12T05:56:01.374Z,1.85
2019-03-12T05:57:05.947Z,1.70
2019-03-12T05:58:10.403Z,1.90
2019-03-12T05:59:14.742Z,1.90
2019-03-12T06:00:19.040Z,1.87
2019-03-12T06:01:23.338Z,1.82
2019-03-12T06:02:27.678Z,1.98
2019-03-12T06:03:31.882Z,2.00
2019-03-12T06:04:35.889Z,1.77
2019-03-12T06:05:39.952Z,1.60
2019-03-12T06:06:44.046Z,1.72
2019-03-12T06:07:48.076Z,1.57
2019-03-12T06:08:52.158Z,1.87
2019-03-12T06:09:56.198Z,1.92
2019-03-12T06:11:00.199Z,1.62
2019-03-12T06:12:04.317Z,1.60
2019-03-12T06:13:08.538Z,1.60
2019-03-12T06:14:12.617Z,1.90
2019-03-12T06:15:16.667Z,1.90
2019-03-12T06:16:20.697Z,1.70
2019-03-12T06:17:24.749Z,1.67
2019-03-12T06:18:28.873Z,2.00
2019-03-12T06:19:33.296Z,1.85
2019-03-12T06:20:37.296Z,1.90
2019-03-12T06:21:41.293Z,2.00
2019-03-12T06:22:45.470Z,1.67
2019-03-12T06:23:49.652Z,1.80
2019-03-12T06:24:53.709Z,1.52
2019-03-12T06:25:57.732Z,1.70
2019-03-12T06:27:01.769Z,1.50
2019-03-12T06:28:05.817Z,1.73
2019-03-12T06:29:09.854Z,1.92
2019-03-12T06:30:14.062Z,1.70
2019-03-12T06:31:23.219Z,1.55
2019-03-12T06:32:34.398Z,1.53
2019-03-12T06:34:12.254Z,1.60
2019-03-12T06:35:20.887Z,1.70
2019-03-12T06:37:28.989Z,1.83
2019-03-12T06:38:43.185Z,1.60
2019-03-12T06:39:56.345Z,1.82
2019-03-12T06:41:07.099Z,1.52
2019-03-12T06:42:17.544Z,1.40
2019-03-12T06:43:56.993Z,1.50
2019-03-12T06:45:07.321Z,1.50
2019-03-12T06:46:46.979Z,1.92
2019-03-12T06:48:16.472Z,1.73
2019-03-12T06:49:27.773Z,1.50
2019-03-12T06:50:53.357Z,1.57
2019-03-12T06:52:06.295Z,1.60
2019-03-12T06:53:34.420Z,1.17
2019-03-12T06:55:16.015Z,1.65
2019-03-12T06:57:30.356Z,1.80
2019-03-12T06:58:40.002Z,1.45
2019-03-12T06:59:49.163Z,1.70
2019-03-12T07:01:07.979Z,1.27
2019-03-12T07:03:15.717Z,1.70
2019-03-12T07:04:27.609Z,1.30
2019-03-12T07:05:41.569Z,1.40
2019-03-12T07:06:50.909Z,1.60
2019-03-12T07:08:02.370Z,1.30
2019-03-12T07:09:21.143Z,1.50
2019-03-12T07:11:32.533Z,1.70
2019-03-12T07:12:43.653Z,1.50
2019-03-12T07:13:52.201Z,1.35
2019-03-12T07:15:06.672Z,1.77
2019-03-12T07:16:15.381Z,1.70
2019-03-12T07:18:25.505Z,1.67
2019-03-12T07:19:43.127Z,1.57
2019-03-12T07:21:56.374Z,1.40
2019-03-12T07:23:21.666Z,1.40
2019-03-12T07:24:40.894Z,1.15
2019-03-12T07:26:23.382Z,1.35
2019-03-12T07:27:31.601Z,1.30
2019-03-12T07:28:50.983Z,1.30
2019-03-12T07:29:59.539Z,1.70
2019-03-12T07:31:08.875Z,1.60
2019-03-12T07:33:18.967Z,1.70
2019-03-12T07:34:36.504Z,1.70
2019-03-12T07:35:36.649Z,1.42
2019-03-12T07:37:00.160Z,1.17
2019-03-12T07:38:11.527Z,1.72
2019-03-12T07:39:20.730Z,1.65
2019-03-12T07:40:29.152Z,1.70
2019-03-12T07:41:40.421Z,1.72
2019-03-12T07:42:51.796Z,1.52
2019-03-12T07:46:04.703Z,1.47
2019-03-12T07:47:12.815Z,1.42
2019-03-12T07:48:52.349Z,1.50
2019-03-12T07:50:01.699Z,1.50
2019-03-12T07:51:11.267Z,1.50
2019-03-12T07:52:19.714Z,1.60
2019-03-12T07:53:28.935Z,1.50
2019-03-12T07:54:38.163Z,1.47
2019-03-12T07:55:47.385Z,1.60
2019-03-12T07:56:56.811Z,1.77
2019-03-12T07:58:06.382Z,1.80
2019-03-12T07:59:22.547Z,1.57
2019-03-12T08:00:47.619Z,1.67
2019-03-12T08:04:03.834Z,1.70
2019-03-12T08:06:11.127Z,1.40
2019-03-12T08:07:21.372Z,1.40
2019-03-12T08:08:29.746Z,1.50
2019-03-12T08:09:38.965Z,1.43
2019-03-12T08:10:56.093Z,1.20
2019-03-12T08:12:05.507Z,1.43
2019-03-12T08:15:22.988Z,1.40
2019-03-12T08:16:44.305Z,1.30
2019-03-12T08:17:54.598Z,1.40
2019-03-12T08:19:05.176Z,1.43
2019-03-12T08:20:16.544Z,1.27
2019-03-12T08:21:25.714Z,1.40
2019-03-12T08:22:42.602Z,1.60
2019-03-12T08:23:51.911Z,1.33
2019-03-12T08:25:07.168Z,1.50
2019-03-12T08:27:14.440Z,1.55
2019-03-12T08:28:26.838Z,1.37
2019-03-12T08:29:39.002Z,1.62
2019-03-12T08:31:46.929Z,1.60
2019-03-12T08:32:56.185Z,1.40
2019-03-12T08:34:13.003Z,1.40
2019-03-12T08:35:22.059Z,1.62
2019-03-12T08:36:31.530Z,1.37
2019-03-12T08:37:40.938Z,1.60
2019-03-12T08:38:50.100Z,1.37
2019-03-12T08:40:02.553Z,1.50
2019-03-12T08:41:12.565Z,1.40
2019-03-12T08:42:22.747Z,1.62
2019-03-12T08:43:35.858Z,1.40
2019-03-12T08:44:55.009Z,1.70
2019-03-12T08:46:04.116Z,1.60
2019-03-12T08:47:19.152Z,1.50
2019-03-12T08:48:44.529Z,1.60
2019-03-12T08:50:51.416Z,1.50
2019-03-12T08:52:02.414Z,1.60
2019-03-12T08:53:13.573Z,1.67
2019-03-12T08:54:28.633Z,1.70
2019-03-12T08:55:44.791Z,1.50
2019-03-12T08:56:55.799Z,1.57
2019-03-12T08:58:09.748Z,1.55
2019-03-12T08:59:35.032Z,1.50
2019-03-12T09:00:48.035Z,1.52
2019-03-12T09:04:01.309Z,1.95
2019-03-12T09:05:10.538Z,1.40
2019-03-12T09:06:19.848Z,1.40
2019-03-12T09:07:29.148Z,1.70
2019-03-12T09:09:42.275Z,1.50
2019-03-12T09:11:49.489Z,1.60
2019-03-12T09:12:58.740Z,1.60
2019-03-12T09:14:26.971Z,1.40
2019-03-12T09:15:42.506Z,1.47
2019-03-12T09:16:51.768Z,1.57
2019-03-12T09:18:08.157Z,1.67
2019-03-12T09:19:17.582Z,1.50
2019-03-12T09:20:29.650Z,1.50
2019-03-12T09:21:38.721Z,1.53
2019-03-12T09:22:48.994Z,1.50
2019-03-12T09:24:01.049Z,1.50
2019-03-12T09:25:17.136Z,1.50
2019-03-12T09:28:31.100Z,1.67
2019-03-12T09:30:39.706Z,1.60
2019-03-12T09:31:47.185Z,1.60
2019-03-12T09:32:58.033Z,1.67
2019-03-12T09:34:22.234Z,1.43
2019-03-12T09:35:31.354Z,1.67
2019-03-12T09:36:39.448Z,1.40
2019-03-12T09:37:47.564Z,1.70
2019-03-12T09:38:57.502Z,1.40
2019-03-12T09:40:07.523Z,1.70
2019-03-12T09:41:20.540Z,1.70
2019-03-12T09:44:34.759Z,1.73
2019-03-12T09:45:58.076Z,1.50
2019-03-12T09:47:07.280Z,1.70
2019-03-12T09:48:16.546Z,1.40
2019-03-12T09:49:29.617Z,1.60
2019-03-12T09:50:39.013Z,1.90
2019-03-12T09:51:47.135Z,2.10
2019-03-12T09:53:12.398Z,1.70
2019-03-12T09:55:20.647Z,1.67
2019-03-12T09:56:29.844Z,1.63
2019-03-12T09:57:47.023Z,1.57
2019-03-12T09:59:53.716Z,1.70
2019-03-12T10:01:37.943Z,1.90
2019-03-12T10:03:44.903Z,1.93
2019-03-12T10:04:55.830Z,1.40
2019-03-12T10:06:13.306Z,1.70
2019-03-12T10:07:21.422Z,1.90
2019-03-12T10:08:40.407Z,1.37
2019-03-12T10:09:53.474Z,1.67
2019-03-12T10:11:03.432Z,1.70
2019-03-12T10:13:20.069Z,1.70
2019-03-12T10:15:02.657Z,1.63
2019-03-12T10:16:11.641Z,1.77
2019-03-12T10:18:43.312Z,1.53
2019-03-12T10:19:52.716Z,1.40
2019-03-12T10:21:07.782Z,1.47
2019-03-12T10:22:23.844Z,1.73
2019-03-12T10:23:35.880Z,1.83
2019-03-12T10:25:21.558Z,1.50
2019-03-12T10:26:38.618Z,1.33
2019-03-12T10:27:47.588Z,1.60
2019-03-12T10:28:56.802Z,1.60
2019-03-12T10:30:13.935Z,1.67
2019-03-12T10:31:25.032Z,1.67
2019-03-12T10:32:33.117Z,1.67
2019-03-12T10:33:50.284Z,1.77
2019-03-12T10:34:58.613Z,1.60
2019-03-12T10:36:08.051Z,1.60
2019-03-12T10:37:17.318Z,1.80
2019-03-12T10:38:37.363Z,1.70
2019-03-12T10:40:05.494Z,1.93
2019-03-12T10:41:16.662Z,1.70
2019-03-12T10:42:28.594Z,1.77
2019-03-12T10:43:37.437Z,1.60
2019-03-12T10:44:49.417Z,1.57
2019-03-12T10:45:57.613Z,1.80
2019-03-12T10:47:06.559Z,1.70
2019-03-12T10:48:11.013Z,1.80
2019-03-12T10:49:15.062Z,1.63
2019-03-12T10:50:19.238Z,1.60
2019-03-12T10:51:23.281Z,1.47
2019-03-12T10:52:27.386Z,1.63
2019-03-12T10:53:31.414Z,1.37
2019-03-12T10:54:35.549Z,1.60
2019-03-12T10:55:39.632Z,1.40
2019-03-12T10:56:43.716Z,1.60
2019-03-12T10:57:47.737Z,1.80
2019-03-12T10:58:51.855Z,1.53
2019-03-12T10:59:56.124Z,1.40
2019-03-12T11:01:00.342Z,1.40
2019-03-12T11:02:04.391Z,1.60
2019-03-12T11:03:08.477Z,1.33
2019-03-12T11:04:12.489Z,1.57
2019-03-12T11:05:16.731Z,1.50
2019-03-12T11:06:20.987Z,1.57
2019-03-12T11:07:25.117Z,1.33
2019-03-12T11:08:29.170Z,1.47
2019-03-12T11:09:33.369Z,1.67
2019-03-12T11:10:37.451Z,1.53
2019-03-12T11:11:41.623Z,1.50
2019-03-12T11:12:45.638Z,1.40
2019-03-12T11:13:50.185Z,1.40
2019-03-12T11:14:56.322Z,1.37
2019-03-12T11:16:01.205Z,1.47
2019-03-12T11:17:06.475Z,1.50
2019-03-12T11:18:12.885Z,1.30
2019-03-12T11:19:17.644Z,1.20
2019-03-12T11:20:22.296Z,1.40
2019-03-12T11:21:26.465Z,1.10
2019-03-12T11:22:31.845Z,1.40
2019-03-12T11:23:37.061Z,1.13
2019-03-12T11:24:41.874Z,1.30
2019-03-12T11:25:46.279Z,1.27
2019-03-12T11:26:50.534Z,1.30
2019-03-12T11:27:55.204Z,1.30
2019-03-12T11:29:00.462Z,1.30
2019-03-12T11:30:05.801Z,1.33
2019-03-12T11:31:11.188Z,1.13
2019-03-12T11:32:16.166Z,1.50
2019-03-12T11:33:20.486Z,1.30
2019-03-12T11:34:24.668Z,1.17
2019-03-12T11:35:38.816Z,1.40
2019-03-12T11:36:33.956Z,1.27
2019-03-12T11:37:39.370Z,1.23
2019-03-12T11:38:44.316Z,1.37
2019-03-12T11:39:49.741Z,1.13
2019-03-12T11:40:54.252Z,1.30
2019-03-12T11:41:59.898Z,1.20
2019-03-12T11:43:08.352Z,1.17
2019-03-12T11:44:13.639Z,1.20
2019-03-12T11:45:20.601Z,1.20
2019-03-12T11:46:24.209Z,1.30
2019-03-12T11:47:31.141Z,1.00
2019-03-12T11:48:35.995Z,1.03
2019-03-12T11:49:42.854Z,0.90
2019-03-12T11:50:47.536Z,1.40
2019-03-12T11:51:54.601Z,0.93
2019-03-12T11:53:00.093Z,1.10
2019-03-12T11:54:04.000Z,1.10
2019-03-12T11:55:08.869Z,1.20
2019-03-12T11:56:13.432Z,1.10
2019-03-12T11:57:17.789Z,1.00
2019-03-12T11:58:22.210Z,1.03
2019-03-12T11:59:26.473Z,1.00
2019-03-12T12:00:33.409Z,1.10
2019-03-12T12:01:38.054Z,1.10
2019-03-12T12:02:42.280Z,1.17
2019-03-12T12:03:46.811Z,1.00
2019-03-12T12:04:51.710Z,1.00
2019-03-12T12:05:56.212Z,1.10
2019-03-12T12:07:01.558Z,0.93
2019-03-12T12:08:06.030Z,1.10
2019-03-12T12:09:11.011Z,0.80
2019-03-12T12:10:15.643Z,1.20
2019-03-12T12:11:20.767Z,1.10
2019-03-12T12:12:26.323Z,1.00
2019-03-12T12:13:32.929Z,1.00
2019-03-12T12:14:39.230Z,1.30
2019-03-12T12:15:45.651Z,1.20
2019-03-12T12:16:49.949Z,1.00
2019-03-12T12:17:54.249Z,1.00
2019-03-12T12:19:04.474Z,1.00
2019-03-12T12:20:10.712Z,1.00
2019-03-12T12:21:21.485Z,0.90
2019-03-12T12:22:32.290Z,0.90
2019-03-12T12:23:43.676Z,1.07
2019-03-12T12:24:57.224Z,0.97
2019-03-12T12:26:18.923Z,0.93
2019-03-12T12:27:24.873Z,1.30
2019-03-12T12:28:29.670Z,1.03
2019-03-12T12:29:36.278Z,1.00
2019-03-12T12:30:40.834Z,1.00
2019-03-12T12:31:47.414Z,1.10
2019-03-12T12:32:50.035Z,1.00
2019-03-12T12:34:03.103Z,1.00
2019-03-12T12:35:11.900Z,0.73
2019-03-12T12:36:16.753Z,1.10
2019-03-12T12:37:21.004Z,0.80
2019-03-12T12:38:26.082Z,1.10
2019-03-12T12:39:41.033Z,1.10
2019-03-12T12:40:54.322Z,1.03
2019-03-12T12:42:00.127Z,1.00
2019-03-12T12:43:15.500Z,1.13
2019-03-12T12:44:20.541Z,1.07
2019-03-12T12:45:26.420Z,0.97
2019-03-12T12:46:31.157Z,0.93
2019-03-12T12:47:35.349Z,1.00
2019-03-12T12:48:40.072Z,1.20
2019-03-12T12:49:45.910Z,1.17
2019-03-12T12:51:02.348Z,1.10
2019-03-12T12:51:54.989Z,1.30
2019-03-12T12:52:59.077Z,1.10
2019-03-12T12:54:03.450Z,1.20
2019-03-12T12:55:08.490Z,0.93
2019-03-12T12:56:13.580Z,1.17
2019-03-12T12:57:17.687Z,1.10
2019-03-12T12:58:22.782Z,1.07
2019-03-12T12:59:26.833Z,1.10
2019-03-12T13:00:30.984Z,1.10
2019-03-12T13:01:35.129Z,1.20
2019-03-12T13:02:39.241Z,1.13
2019-03-12T13:03:43.318Z,1.50
2019-03-12T13:04:47.457Z,0.93
2019-03-12T13:05:51.523Z,1.27
2019-03-12T13:06:56.553Z,1.00
2019-03-12T13:08:00.628Z,1.10
2019-03-12T13:09:06.079Z,1.10
2019-03-12T13:10:12.377Z,1.17
2019-03-12T13:11:16.448Z,1.23
2019-03-12T13:12:20.630Z,1.10
2019-03-12T13:13:24.735Z,1.10
2019-03-12T13:14:40.732Z,1.50
2019-03-12T13:15:32.902Z,1.10
2019-03-12T13:16:36.972Z,1.40
2019-03-12T13:17:41.070Z,1.10
2019-03-12T13:18:45.178Z,0.97
2019-03-12T13:19:49.258Z,1.20
2019-03-12T13:20:53.351Z,1.10
2019-03-12T13:21:57.462Z,1.20
2019-03-12T13:23:01.731Z,1.17
2019-03-12T13:24:05.813Z,1.20
2019-03-12T13:25:10.080Z,1.20
2019-03-12T13:26:14.115Z,1.00
2019-03-12T13:27:18.135Z,1.30
2019-03-12T13:28:22.225Z,1.10
2019-03-12T13:29:26.270Z,1.00
2019-03-12T13:30:30.469Z,1.20
2019-03-12T13:31:34.504Z,1.03
2019-03-12T13:32:38.601Z,1.20
2019-03-12T13:33:42.706Z,1.27
2019-03-12T13:34:46.749Z,1.20
2019-03-12T13:35:50.817Z,1.20
2019-03-12T13:36:54.874Z,1.20
2019-03-12T13:37:59.001Z,1.17
2019-03-12T13:39:03.141Z,1.10
2019-03-12T13:40:07.594Z,1.00
2019-03-12T13:41:11.670Z,1.10
2019-03-12T13:42:15.669Z,1.10
2019-03-12T13:43:19.685Z,1.00
2019-03-12T13:44:23.898Z,1.20
2019-03-12T13:45:29.152Z,1.20
2019-03-12T13:46:33.181Z,1.00
2019-03-12T13:47:37.349Z,1.10
2019-03-12T13:48:41.521Z,1.13
2019-03-12T13:49:45.636Z,1.30
2019-03-12T13:50:49.741Z,1.07
2019-03-12T13:51:53.814Z,1.10
2019-03-12T13:52:58.101Z,1.10
2019-03-12T13:54:01.997Z,1.10
2019-03-12T13:55:06.759Z,1.20
2019-03-12T13:56:10.851Z,1.40
2019-03-12T13:57:15.018Z,1.20
2019-03-12T13:58:19.099Z,0.97
2019-03-12T13:59:23.190Z,1.03
2019-03-12T14:00:27.375Z,1.13
2019-03-12T14:01:31.499Z,1.00
2019-03-12T14:02:35.567Z,1.00
2019-03-12T14:03:39.593Z,1.00
2019-03-12T14:04:43.745Z,0.80
2019-03-12T14:05:47.849Z,1.00
2019-03-12T14:06:51.875Z,1.10
2019-03-12T14:07:55.955Z,0.83
2019-03-12T14:09:00.009Z,1.10
2019-03-12T14:10:04.214Z,1.17
2019-03-12T14:11:08.454Z,1.17
2019-03-12T14:12:12.557Z,1.10
2019-03-12T14:13:16.672Z,1.40
2019-03-12T14:14:23.695Z,1.13
2019-03-12T14:15:29.159Z,1.20
2019-03-12T14:16:33.292Z,1.17
2019-03-12T14:17:37.310Z,1.10
2019-03-12T14:18:41.362Z,1.33
2019-03-12T14:19:45.393Z,1.20
2019-03-12T14:20:51.625Z,1.27
2019-03-12T14:21:55.757Z,1.17
2019-03-12T14:22:59.831Z,1.10
2019-03-12T14:24:04.387Z,1.00
2019-03-12T14:25:08.537Z,1.20
2019-03-12T14:26:13.073Z,1.10
2019-03-12T14:27:17.214Z,1.10
2019-03-12T14:28:21.403Z,1.33
2019-03-12T14:29:25.652Z,1.43
2019-03-12T14:30:29.843Z,1.20
2019-03-12T14:31:33.911Z,1.10
2019-03-12T14:32:37.999Z,1.13
2019-03-12T14:33:42.014Z,1.13
2019-03-12T14:34:46.033Z,1.10
2019-03-12T14:35:51.741Z,1.30
2019-03-12T14:36:54.277Z,1.20
2019-03-12T14:37:58.430Z,1.10
2019-03-12T14:39:02.529Z,1.30
2019-03-12T14:40:06.590Z,1.10
2019-03-12T14:41:10.699Z,1.30
2019-03-12T14:42:14.709Z,1.10
2019-03-12T14:43:18.966Z,1.40
2019-03-12T14:44:23.048Z,1.37
2019-03-12T14:45:28.062Z,1.37
2019-03-12T14:46:32.159Z,1.30
2019-03-12T14:47:36.234Z,1.43
2019-03-12T14:48:44.614Z,1.37
2019-03-12T14:49:48.690Z,1.30
2019-03-12T14:50:52.746Z,1.30
2019-03-12T14:52:07.953Z,1.23
2019-03-12T14:53:21.433Z,1.30
2019-03-12T14:54:16.360Z,1.40
2019-03-12T14:55:20.544Z,1.40
2019-03-12T14:56:25.397Z,1.50
2019-03-12T14:57:29.402Z,1.33
2019-03-12T14:58:33.472Z,1.50
2019-03-12T14:59:37.704Z,1.20
2019-03-12T15:00:41.816Z,1.47
2019-03-12T15:01:45.901Z,1.50
2019-03-12T15:02:50.344Z,1.60
2019-03-12T15:03:54.635Z,1.40
2019-03-12T15:04:58.751Z,1.60
2019-03-12T15:06:02.774Z,1.60
2019-03-12T15:07:06.866Z,1.63
2019-03-12T15:08:12.220Z,1.83
2019-03-12T15:09:17.015Z,1.60
2019-03-12T15:10:21.100Z,1.60
2019-03-12T15:11:25.496Z,1.53
2019-03-12T15:12:29.549Z,1.70
2019-03-12T15:13:33.685Z,1.50
2019-03-12T15:14:37.808Z,1.47
2019-03-12T15:15:41.934Z,1.60
2019-03-12T15:16:46.013Z,1.70
2019-03-12T15:17:50.179Z,1.70
2019-03-12T15:18:54.195Z,1.70
2019-03-12T15:19:58.330Z,1.43